Time;durP1;ratioP1;P1;durP2;ratioP2;P2;SDS_P1;SDS_P2;PMS_P1;PMS_P2;Temp;Humidity;BMP_temperature;BMP_pressure;BME280_temperature;BME280_humidity;BME280_pressure;Samples;Min_cycle;Max_cycle;Signal;HPM_P1;HPM_P2
2023/06/08 00:01:42;;;;;;;0.00;0.00;;;;;;;12.95;71.53;100647.47;6117411;23;20028;-77
2023/06/08 00:04:08;;;;;;;0.00;0.00;;;;;;;12.91;71.23;100658.22;6092524;23;20009;-77
2023/06/08 00:06:34;;;;;;;0.00;0.00;;;;;;;12.88;71.57;100660.69;6063734;23;20079;-74
2023/06/08 00:09:04;;;;;;;0.00;0.00;;;;;;;12.85;71.95;100659.31;6117639;23;20032;-75
2023/06/08 00:11:31;;;;;;;0.00;0.00;;;;;;;12.84;71.85;100662.34;6112527;23;20038;-73
2023/06/08 00:13:57;;;;;;;0.00;0.00;;;;;;;12.77;72.24;100659.84;6068001;23;20045;-76
2023/06/08 00:16:22;;;;;;;0.00;0.00;;;;;;;12.75;72.07;100662.88;6091629;23;20002;-75
2023/06/08 00:18:49;;;;;;;0.00;0.00;;;;;;;12.66;72.19;100660.94;6064766;23;20019;-75
2023/06/08 00:21:15;;;;;;;0.00;0.00;;;;;;;12.62;72.61;100663.44;6115761;23;20014;-76
2023/06/08 00:23:41;;;;;;;0.00;0.00;;;;;;;12.55;72.78;100665.63;6113756;23;20511;-75
2023/06/08 00:26:06;;;;;;;0.00;0.00;;;;;;;12.53;73.16;100662.34;6117158;23;20034;-75
2023/06/08 00:28:32;;;;;;;0.00;0.00;;;;;;;12.48;73.18;100674.09;6092271;23;20089;-76
2023/06/08 00:30:57;;;;;;;0.00;0.00;;;;;;;12.35;72.88;100658.19;6087567;23;20356;-76
2023/06/08 00:33:23;;;;;;;0.00;0.00;;;;;;;12.30;73.11;100664.50;6090634;23;20013;-76
2023/06/08 00:35:49;;;;;;;0.00;0.00;;;;;;;12.28;73.21;100671.34;6088041;23;20081;-76
2023/06/08 00:38:14;;;;;;;0.00;0.00;;;;;;;12.22;73.48;100662.28;6127219;23;20021;-76
2023/06/08 00:40:42;;;;;;;0.00;0.00;;;;;;;12.16;73.21;100666.09;6117694;23;20454;-74
2023/06/08 00:43:07;;;;;;;0.00;0.00;;;;;;;12.13;74.01;100661.16;6095972;23;20087;-76
2023/06/08 00:45:33;;;;;;;0.00;0.00;;;;;;;12.09;73.91;100669.13;6122865;23;20013;-73
2023/06/08 00:47:58;;;;;;;0.00;0.00;;;;;;;12.02;74.33;100658.41;6092245;23;20009;-74
2023/06/08 00:50:24;;;;;;;0.00;0.00;;;;;;;12.00;73.95;100652.38;6146347;23;20009;-75
2023/06/08 00:52:50;;;;;;;0.00;0.00;;;;;;;12.04;74.10;100653.47;6089898;23;20020;-74
2023/06/08 00:55:19;;;;;;;0.00;0.00;;;;;;;11.99;74.62;100637.03;6149607;23;20016;-74
2023/06/08 00:57:47;;;;;;;0.00;0.00;;;;;;;12.11;75.10;100649.66;6118394;23;20139;-74
2023/06/08 01:00:15;;;;;;;0.00;0.00;;;;;;;12.12;74.48;100662.25;6146370;23;20007;-73
2023/06/08 01:02:41;;;;;;;0.00;0.00;;;;;;;12.01;74.57;100640.31;6143915;23;20065;-74
2023/06/08 01:05:07;;;;;;;0.00;0.00;;;;;;;12.03;75.11;100653.72;6118659;23;20018;-74
2023/06/08 01:07:59;;;;;;;0.00;0.00;;;;;;;11.97;74.98;100655.66;6146389;23;20055;-74
2023/06/08 01:10:33;;;;;;;0.00;0.00;;;;;;;11.93;74.82;100650.94;6118288;23;20013;-74
2023/06/08 01:13:25;;;;;;;0.00;0.00;;;;;;;11.92;74.91;100666.56;6117137;23;20016;-74
2023/06/08 01:16:00;;;;;;;0.00;0.00;;;;;;;11.85;74.84;100657.78;6119973;23;20033;-74
2023/06/08 01:18:32;;;;;;;0.00;0.00;;;;;;;11.78;74.27;100654.47;6146013;23;20012;-74
2023/06/08 01:21:30;;;;;;;0.00;0.00;;;;;;;11.77;74.53;100666.50;6098607;23;20006;-74
2023/06/08 01:24:13;;;;;;;0.00;0.00;;;;;;;11.70;75.27;100656.63;6144442;23;20384;-73
2023/06/08 01:26:43;;;;;;;0.00;0.00;;;;;;;11.67;74.93;100656.34;6147788;22;20012;-75
2023/06/08 01:29:11;;;;;;;0.00;0.00;;;;;;;11.64;75.23;100652.22;6143320;23;20009;-74
2023/06/08 01:31:37;;;;;;;0.00;0.00;;;;;;;11.61;74.69;100647.28;6121645;23;20108;-76
2023/06/08 01:34:05;;;;;;;0.00;0.00;;;;;;;11.59;74.86;100657.66;6120413;22;20055;-76
2023/06/08 01:36:36;;;;;;;0.00;0.00;;;;;;;11.50;75.06;100653.78;6120852;23;20024;-77
2023/06/08 01:39:13;;;;;;;0.00;0.00;;;;;;;11.41;75.56;100647.19;6122140;23;20348;-75
2023/06/08 01:41:43;;;;;;;0.00;0.00;;;;;;;11.34;75.12;100645.47;6142430;23;20005;-75
2023/06/08 01:44:12;;;;;;;0.00;0.00;;;;;;;11.38;75.39;100661.41;6147905;23;20078;-75
2023/06/08 01:46:37;;;;;;;0.00;0.00;;;;;;;11.39;75.60;100660.31;6117422;23;20012;-77
2023/06/08 01:49:05;;;;;;;0.00;0.00;;;;;;;11.32;75.07;100658.63;6122493;23;20100;-76
2023/06/08 01:51:32;;;;;;;0.00;0.00;;;;;;;11.27;75.59;100652.31;6123049;23;20089;-77
2023/06/08 01:54:08;;;;;;;0.00;0.00;;;;;;;11.28;74.96;100662.16;6142292;23;20718;-76
2023/06/08 01:56:35;;;;;;;0.00;0.00;;;;;;;11.23;75.28;100662.97;6120511;23;20009;-76
2023/06/08 01:59:02;;;;;;;0.00;0.00;;;;;;;11.21;75.28;100656.91;6142697;23;20010;-76
2023/06/08 02:01:27;;;;;;;0.00;0.00;;;;;;;11.21;75.48;100661.56;6123143;23;20012;-77
2023/06/08 02:03:53;;;;;;;0.00;0.00;;;;;;;11.20;75.06;100663.50;6118585;23;20014;-75
2023/06/08 02:06:21;;;;;;;0.00;0.00;;;;;;;11.12;75.77;100653.84;6149239;23;20006;-75
2023/06/08 02:08:46;;;;;;;0.00;0.00;;;;;;;11.11;75.31;100665.06;6094662;23;20018;-75
2023/06/08 02:11:12;;;;;;;0.00;0.00;;;;;;;11.04;75.26;100662.56;6120832;23;20052;-75
2023/06/08 02:13:44;;;;;;;0.00;0.00;;;;;;;10.95;75.57;100651.28;6123072;23;20331;-75
2023/06/08 02:16:10;;;;;;;0.00;0.00;;;;;;;11.00;75.61;100659.53;6143883;23;20012;-75
2023/06/08 02:18:40;;;;;;;0.00;0.00;;;;;;;10.96;75.74;100663.88;6150373;23;20013;-75
2023/06/08 02:21:09;;;;;;;0.00;0.00;;;;;;;10.91;76.06;100658.38;6154610;23;20067;-75
2023/06/08 02:23:35;;;;;;;0.00;0.00;;;;;;;10.89;75.92;100663.25;6159349;23;20006;-74
2023/06/08 02:26:00;;;;;;;0.00;0.00;;;;;;;10.87;75.63;100653.69;6128633;23;20096;-76
2023/06/08 02:28:26;;;;;;;0.00;0.00;;;;;;;10.87;75.91;100643.56;6099577;23;20017;-76
2023/06/08 02:30:51;;;;;;;0.00;0.00;;;;;;;10.84;76.05;100655.03;6110185;23;20340;-75
2023/06/08 02:33:17;;;;;;;0.00;0.00;;;;;;;10.83;76.20;100653.38;6145045;23;20006;-75
2023/06/08 02:35:42;;;;;;;0.00;0.00;;;;;;;10.78;75.18;100640.50;6119946;23;20016;-75
2023/06/08 02:38:08;;;;;;;0.00;0.00;;;;;;;10.82;76.12;100651.75;6144314;22;20343;-76
2023/06/08 02:40:33;;;;;;;0.00;0.00;;;;;;;10.82;75.91;100636.16;6118537;23;20085;-74
2023/06/08 02:42:59;;;;;;;0.00;0.00;;;;;;;10.83;75.90;100650.63;6118122;23;20016;-75
2023/06/08 02:45:26;;;;;;;0.00;0.00;;;;;;;10.76;76.18;100636.38;6119718;23;20372;-75
2023/06/08 02:47:51;;;;;;;0.00;0.00;;;;;;;10.68;76.34;100631.41;6119656;23;20393;-75
2023/06/08 02:50:17;;;;;;;0.00;0.00;;;;;;;10.63;75.76;100633.00;6118009;23;20005;-75
2023/06/08 02:52:42;;;;;;;0.00;0.00;;;;;;;10.64;76.12;100633.81;6119227;23;20135;-75
2023/06/08 02:55:08;;;;;;;0.00;0.00;;;;;;;10.59;75.63;100626.41;6117180;23;20017;-75
2023/06/08 02:57:34;;;;;;;0.00;0.00;;;;;;;10.61;75.88;100635.16;6072043;23;20006;-75
2023/06/08 03:00:00;;;;;;;0.00;0.00;;;;;;;10.53;76.12;100638.38;6117954;23;20062;-75
2023/06/08 03:02:27;;;;;;;0.00;0.00;;;;;;;10.50;76.00;100633.44;6119589;23;20435;-75
2023/06/08 03:04:53;;;;;;;0.00;0.00;;;;;;;10.54;76.02;100633.72;6120981;22;20369;-77
2023/06/08 03:07:19;;;;;;;0.00;0.00;;;;;;;10.50;75.81;100638.91;6093387;23;20036;-75
2023/06/08 03:09:44;;;;;;;0.00;0.00;;;;;;;10.38;75.81;100630.03;6144821;23;20001;-75
2023/06/08 03:12:12;;;;;;;0.00;0.00;;;;;;;10.31;76.27;100630.25;6116317;23;20386;-74
2023/06/08 03:14:40;;;;;;;0.00;0.00;;;;;;;10.27;76.15;100634.56;6145699;23;20175;-75
2023/06/08 03:17:06;;;;;;;0.00;0.00;;;;;;;10.24;76.46;100635.91;6117444;23;20021;-76
2023/06/08 03:19:39;;;;;;;0.00;0.00;;;;;;;10.20;76.12;100644.88;5055106;28;20383;-75
2023/06/08 03:22:06;;;;;;;0.00;0.00;;;;;;;10.10;76.20;100640.13;5054866;28;20029;-75
2023/06/08 03:24:32;;;;;;;0.00;0.00;;;;;;;10.07;76.65;100640.66;5050908;28;20029;-76
2023/06/08 03:26:59;;;;;;;0.00;0.00;;;;;;;10.01;76.56;100625.28;5021505;28;20037;-75
2023/06/08 03:29:25;;;;;;;0.00;0.00;;;;;;;10.00;76.23;100632.63;5055042;28;20669;-75
2023/06/08 03:31:51;;;;;;;0.00;0.00;;;;;;;9.99;76.92;100635.63;5029214;28;20033;-75
2023/06/08 03:34:17;;;;;;;0.00;0.00;;;;;;;9.94;76.79;100648.19;5041299;28;20122;-74
2023/06/08 03:36:44;;;;;;;0.00;0.00;;;;;;;9.90;76.66;100629.81;5054341;28;20130;-73
2023/06/08 03:39:12;;;;;;;0.00;0.00;;;;;;;9.87;77.31;100647.56;5050331;28;20013;-75
2023/06/08 03:41:37;;;;;;;0.00;0.00;;;;;;;9.88;76.77;100640.97;5039569;28;20027;-74
2023/06/08 03:44:03;;;;;;;0.00;0.00;;;;;;;9.95;76.95;100644.34;5038313;28;20442;-74
2023/06/08 03:46:29;;;;;;;0.00;0.00;;;;;;;9.92;76.76;100646.78;5037058;28;20430;-74
2023/06/08 03:48:54;;;;;;;0.00;0.00;;;;;;;9.85;77.18;100643.41;5048974;28;20025;-75
2023/06/08 03:51:21;;;;;;;0.00;0.00;;;;;;;9.80;76.95;100638.72;5053689;28;20120;-75
2023/06/08 03:53:52;;;;;;;0.00;0.00;;;;;;;9.80;77.38;100641.47;5093992;28;20443;-73
2023/06/08 03:56:18;;;;;;;0.00;0.00;;;;;;;9.71;76.97;100626.59;5049250;28;20029;-74
2023/06/08 03:58:44;;;;;;;0.00;0.00;;;;;;;9.74;77.09;100643.31;5054822;28;20383;-74
2023/06/08 04:01:13;;;;;;;0.00;0.00;;;;;;;9.72;76.97;100636.44;5056923;28;20028;-74
2023/06/08 04:03:39;;;;;;;0.00;0.00;;;;;;;9.61;77.43;100632.78;5042218;28;20025;-75
2023/06/08 04:06:08;;;;;;;0.00;0.00;;;;;;;9.68;76.94;100644.31;5044618;28;20394;-73
2023/06/08 04:08:40;;;;;;;0.00;0.00;;;;;;;9.65;76.71;100644.00;5043487;28;20212;-74
2023/06/08 04:11:07;;;;;;;0.00;0.00;;;;;;;9.58;77.03;100628.63;5061616;28;20564;-76
2023/06/08 04:13:34;;;;;;;0.00;0.00;;;;;;;9.65;77.07;100633.06;5045986;28;20079;-76
2023/06/08 04:16:00;;;;;;;0.00;0.00;;;;;;;9.68;77.40;100630.69;5060939;28;20059;-73
2023/06/08 04:18:26;;;;;;;0.00;0.00;;;;;;;9.73;76.88;100638.09;5059806;28;20060;-74
2023/06/08 04:20:52;;;;;;;0.00;0.00;;;;;;;9.69;77.01;100636.94;5062364;28;20051;-74
2023/06/08 04:23:17;;;;;;;0.00;0.00;;;;;;;9.76;77.10;100640.31;5052228;28;20177;-74
2023/06/08 04:25:42;;;;;;;0.00;0.00;;;;;;;9.73;77.03;100638.09;5051873;28;20938;-73
2023/06/08 04:28:08;;;;;;;0.00;0.00;;;;;;;9.81;77.04;100651.28;5051124;28;20104;-74
2023/06/08 04:30:33;;;;;;;0.00;0.00;;;;;;;9.76;76.71;100645.78;5047539;28;20033;-75
2023/06/08 04:33:00;;;;;;;0.00;0.00;;;;;;;9.78;76.91;100638.97;5075170;28;20060;-73
2023/06/08 04:35:26;;;;;;;0.00;0.00;;;;;;;9.82;76.43;100650.22;5030609;28;20053;-74
2023/06/08 04:37:52;;;;;;;0.00;0.00;;;;;;;9.81;76.91;100643.09;5041564;28;20052;-73
2023/06/08 04:40:19;;;;;;;0.00;0.00;;;;;;;9.81;76.68;100647.72;5038028;28;20506;-74
2023/06/08 04:42:45;;;;;;;0.00;0.00;;;;;;;9.78;76.68;100643.59;5030325;28;20030;-73
2023/06/08 04:45:11;;;;;;;0.00;0.00;;;;;;;9.80;76.41;100641.47;5008990;28;20087;-76
2023/06/08 04:47:37;;;;;;;0.00;0.00;;;;;;;9.84;76.44;100642.59;5035544;28;20032;-75
2023/06/08 04:50:08;;;;;;;0.00;0.00;;;;;;;9.87;76.22;100644.81;5040481;28;20547;-76
2023/06/08 04:52:42;;;;;;;0.00;0.00;;;;;;;9.84;76.22;100631.69;5040433;28;20403;-76
2023/06/08 04:55:12;;;;;;;0.00;0.00;;;;;;;10.06;75.94;100637.09;5025131;28;20022;-76
2023/06/08 04:57:40;;;;;;;0.00;0.00;;;;;;;10.19;75.25;100637.75;5058290;28;20033;-74
2023/06/08 05:00:08;;;;;;;0.00;0.00;;;;;;;10.39;75.22;100637.16;5035766;28;20499;-74
2023/06/08 05:02:34;;;;;;;0.00;0.00;;;;;;;10.58;74.53;100640.34;5034439;28;20035;-75
2023/06/08 05:04:59;;;;;;;0.00;0.00;;;;;;;10.72;73.77;100635.22;5047324;28;20410;-75
2023/06/08 05:07:25;;;;;;;0.00;0.00;;;;;;;10.84;73.64;100644.09;5034135;28;20442;-75
2023/06/08 05:09:50;;;;;;;0.00;0.00;;;;;;;11.03;73.27;100647.22;5043799;28;20029;-76
2023/06/08 05:12:15;;;;;;;0.00;0.00;;;;;;;11.14;73.19;100637.16;5043695;28;20032;-74
2023/06/08 05:14:41;;;;;;;0.00;0.00;;;;;;;11.22;72.74;100633.94;5043494;28;20036;-76
2023/06/08 05:17:08;;;;;;;0.00;0.00;;;;;;;11.44;72.19;100638.44;5030898;28;20033;-77
2023/06/08 05:19:34;;;;;;;0.00;0.00;;;;;;;11.55;72.02;100636.56;5043415;28;20041;-74
2023/06/08 05:21:59;;;;;;;0.00;0.00;;;;;;;11.59;71.97;100630.28;5029254;28;20083;-75
2023/06/08 05:24:25;;;;;;;0.00;0.00;;;;;;;11.66;71.83;100639.06;5012695;28;20423;-76
2023/06/08 05:26:50;;;;;;;0.00;0.00;;;;;;;11.75;71.47;100635.81;5037590;28;20044;-76
2023/06/08 05:29:16;;;;;;;0.00;0.00;;;;;;;11.79;71.25;100631.44;5017478;28;20021;-77
2023/06/08 05:31:41;;;;;;;0.00;0.00;;;;;;;11.85;70.55;100631.19;5037790;28;20052;-75
2023/06/08 05:34:07;;;;;;;0.00;0.00;;;;;;;11.92;70.46;100641.91;5047084;28;20053;-75
2023/06/08 05:36:32;;;;;;;0.00;0.00;;;;;;;12.00;69.91;100643.31;5033746;28;20390;-77
2023/06/08 05:39:05;;;;;;;0.00;0.00;;;;;;;12.06;70.10;100631.25;5025040;28;20057;-76
2023/06/08 05:41:33;;;;;;;0.00;0.00;;;;;;;12.19;69.45;100629.91;5023251;28;20025;-74
2023/06/08 05:44:01;;;;;;;0.00;0.00;;;;;;;12.35;69.42;100644.47;5040187;28;20025;-76
2023/06/08 05:46:31;;;;;;;0.00;0.00;;;;;;;12.43;69.07;100632.16;5029672;28;20034;-75
2023/06/08 05:48:57;;;;;;;0.00;0.00;;;;;;;12.53;68.44;100640.41;5032209;28;20018;-77
2023/06/08 05:51:25;;;;;;;0.00;0.00;;;;;;;12.56;68.91;100639.84;5042954;28;20442;-70
2023/06/08 05:54:06;;;;;;;0.00;0.00;;;;;;;12.42;68.31;100634.06;5036605;28;20032;-74
2023/06/08 05:56:36;;;;;;;0.00;0.00;;;;;;;12.17;68.20;100615.69;5043236;28;20449;-75
2023/06/08 05:59:04;;;;;;;0.00;0.00;;;;;;;12.15;68.65;100628.81;5029913;28;20507;-77
2023/06/08 06:01:37;;;;;;;0.00;0.00;;;;;;;12.01;68.63;100623.03;5039757;28;20368;-76
2023/06/08 06:07:12;;;;;;;0.00;0.00;;;;;;;11.89;69.31;100604.09;5046588;28;20041;-77
2023/06/08 06:09:37;;;;;;;0.00;0.00;;;;;;;11.98;69.42;100624.41;5033558;28;20036;-75
2023/06/08 06:12:03;;;;;;;0.00;0.00;;;;;;;12.10;68.85;100626.88;5041806;28;20021;-76
2023/06/08 06:14:39;;;;;;;0.00;0.00;;;;;;;12.21;68.70;100627.75;5034284;28;20384;-75
2023/06/08 06:17:08;;;;;;;0.00;0.00;;;;;;;12.16;69.06;100627.72;5026372;28;20017;-77
2023/06/08 06:19:38;;;;;;;0.00;0.00;;;;;;;12.18;69.29;100631.03;5027189;28;20096;-76
2023/06/08 06:22:05;;;;;;;0.00;0.00;;;;;;;12.22;68.99;100632.13;5025557;28;20025;-76
2023/06/08 06:24:31;;;;;;;0.00;0.00;;;;;;;12.25;68.95;100623.38;5038070;28;20021;-76
2023/06/08 06:26:56;;;;;;;0.00;0.00;;;;;;;12.26;68.66;100613.22;5030790;28;20073;-75
2023/06/08 06:29:22;;;;;;;0.00;0.00;;;;;;;12.43;68.90;100626.69;5025860;28;20018;-76
2023/06/08 06:31:47;;;;;;;0.00;0.00;;;;;;;12.54;68.23;100620.06;5001683;28;20691;-76
2023/06/08 06:34:12;;;;;;;0.00;0.00;;;;;;;12.61;67.87;100631.59;5006568;28;21758;-76
2023/06/08 06:36:38;;;;;;;0.00;0.00;;;;;;;12.70;68.00;100619.00;5039322;28;20032;-75
2023/06/08 06:39:03;;;;;;;0.00;0.00;;;;;;;12.77;67.70;100628.88;5008963;28;20083;-75
2023/06/08 06:41:29;;;;;;;0.00;0.00;;;;;;;12.83;67.22;100622.25;5012576;28;20239;-75
2023/06/08 06:43:56;;;;;;;0.00;0.00;;;;;;;12.85;67.13;100620.06;5029841;28;20025;-76
2023/06/08 06:46:22;;;;;;;0.00;0.00;;;;;;;12.90;67.39;100618.13;5020344;28;20063;-75
2023/06/08 06:48:47;;;;;;;0.00;0.00;;;;;;;12.84;67.06;100600.03;5012515;28;20025;-75
2023/06/08 06:51:15;;;;;;;0.00;0.00;;;;;;;12.83;67.19;100594.81;5044743;28;20093;-76
2023/06/08 06:53:48;;;;;;;0.00;0.00;;;;;;;12.96;66.95;100591.50;5025119;28;20064;-76
2023/06/08 06:56:14;;;;;;;0.00;0.00;;;;;;;13.22;66.51;100614.22;5029170;28;20468;-75
2023/06/08 06:58:44;;;;;;;0.00;0.00;;;;;;;13.40;66.50;100620.22;5013728;28;20033;-76
2023/06/08 07:01:18;;;;;;;0.00;0.00;;;;;;;13.48;66.38;100610.59;5032604;28;20037;-76
2023/06/08 07:03:44;;;;;;;0.00;0.00;;;;;;;13.54;65.57;100603.97;5040784;28;20016;-76
2023/06/08 07:06:10;;;;;;;0.00;0.00;;;;;;;13.76;65.38;100622.84;5039629;28;20037;-75
2023/06/08 07:08:36;;;;;;;0.00;0.00;;;;;;;13.77;65.51;100611.56;5028055;28;20025;-75
2023/06/08 07:11:02;;;;;;;0.00;0.00;;;;;;;13.92;65.22;100607.91;5010048;28;20064;-77
2023/06/08 07:13:28;;;;;;;0.00;0.00;;;;;;;14.17;64.93;100616.28;5033042;28;20034;-77
2023/06/08 07:15:57;;;;;;;0.00;0.00;;;;;;;14.21;64.48;100598.09;5022168;28;20099;-75
2023/06/08 07:18:22;;;;;;;0.00;0.00;;;;;;;14.21;63.66;100587.09;5037229;28;20053;-76
2023/06/08 07:20:48;;;;;;;0.00;0.00;;;;;;;14.50;63.32;100614.66;5040305;28;20026;-75
2023/06/08 07:23:13;;;;;;;0.00;0.00;;;;;;;14.52;63.51;100589.59;5041803;28;20025;-76
2023/06/08 07:25:39;;;;;;;0.00;0.00;;;;;;;14.63;63.20;100599.41;5039792;28;20479;-77
2023/06/08 07:28:05;;;;;;;0.00;0.00;;;;;;;14.53;62.81;100574.72;5040786;28;20100;-75
2023/06/08 07:30:31;;;;;;;0.00;0.00;;;;;;;14.73;63.09;100587.50;5023050;28;20037;-76
2023/06/08 07:32:58;;;;;;;0.00;0.00;;;;;;;14.83;62.42;100591.00;5023544;28;20029;-77
2023/06/08 07:35:23;;;;;;;0.00;0.00;;;;;;;14.90;61.97;100592.59;5035628;28;20056;-76
2023/06/08 07:37:49;;;;;;;0.00;0.00;;;;;;;15.09;61.20;100615.50;5021859;28;20048;-77
2023/06/08 07:40:17;;;;;;;0.00;0.00;;;;;;;14.98;61.33;100590.00;5032866;28;20058;-76
2023/06/08 07:42:43;;;;;;;0.00;0.00;;;;;;;15.11;61.10;100591.25;5026955;28;20021;-74
2023/06/08 07:45:12;;;;;;;0.00;0.00;;;;;;;15.13;60.51;100594.53;5033730;28;20020;-75
2023/06/08 07:47:38;;;;;;;0.00;0.00;;;;;;;15.24;60.58;100589.72;5047242;28;20034;-75
2023/06/08 07:50:20;;;;;;;0.00;0.00;;;;;;;15.36;60.34;100586.53;5035700;28;20511;-76
2023/06/08 07:52:48;;;;;;;0.00;0.00;;;;;;;15.48;59.76;100600.72;5028007;28;20025;-75
2023/06/08 07:55:13;;;;;;;0.00;0.00;;;;;;;15.66;59.90;100607.38;5041379;28;20064;-76
2023/06/08 07:57:55;;;;;;;;;;;;;;;;;;;;;
2023/06/08 08:00:31;;;;;;;0.00;0.00;;;;;;;15.78;58.99;100593.19;5031416;28;20032;-76
2023/06/08 08:06:35;;;;;;;0.00;0.00;;;;;;;16.13;58.60;100602.06;5044731;28;20114;-76
2023/06/08 08:08:59;;;;;;;0.00;0.00;;;;;;;16.26;58.35;100603.25;5032226;28;20037;-77
2023/06/08 08:11:26;;;;;;;0.00;0.00;;;;;;;16.31;57.83;100594.06;5023427;28;20533;-77
2023/06/08 08:13:52;;;;;;;0.00;0.00;;;;;;;16.42;57.49;100601.06;5038126;28;20036;-78
2023/06/08 08:16:18;;;;;;;0.00;0.00;;;;;;;16.54;57.48;100592.31;5056898;28;20074;-78
2023/06/08 08:18:44;;;;;;;0.00;0.00;;;;;;;16.74;57.53;100593.91;5009465;28;20076;-77
2023/06/08 08:21:09;;;;;;;0.00;0.00;;;;;;;16.95;56.96;100599.91;5043772;28;20029;-77
2023/06/08 08:23:35;;;;;;;0.00;0.00;;;;;;;17.09;56.25;100591.63;5024435;28;20075;-77
2023/06/08 08:26:00;;;;;;;0.00;0.00;;;;;;;17.17;56.21;100593.69;5011706;28;20056;-77
2023/06/08 08:28:26;;;;;;;0.00;0.00;;;;;;;17.34;55.82;100593.06;5016903;28;20025;-78
2023/06/08 08:30:51;;;;;;;0.00;0.00;;;;;;;17.44;55.48;100581.81;5010423;28;20108;-77
2023/06/08 08:33:17;;;;;;;0.00;0.00;;;;;;;17.53;54.23;100584.66;5008845;28;20029;-77
2023/06/08 08:35:45;;;;;;;0.00;0.00;;;;;;;17.49;54.66;100566.25;5029086;28;20056;-77
2023/06/08 08:38:10;;;;;;;0.00;0.00;;;;;;;17.63;53.98;100583.63;5022765;28;20501;-77
2023/06/08 08:40:36;;;;;;;0.00;0.00;;;;;;;17.78;54.16;100588.84;5045643;28;20028;-78
2023/06/08 08:43:06;;;;;;;0.00;0.00;;;;;;;17.98;54.10;100588.72;5002848;28;20024;-78
2023/06/08 08:45:38;;;;;;;0.00;0.00;;;;;;;18.05;53.22;100594.63;5033001;28;20434;-77
2023/06/08 08:48:04;;;;;;;0.00;0.00;;;;;;;18.00;53.10;100569.84;5033351;28;20021;-78
2023/06/08 08:50:33;;;;;;;0.00;0.00;;;;;;;18.24;52.74;100595.28;5045374;28;20037;-79
2023/06/08 08:53:02;;;;;;;0.00;0.00;;;;;;;18.37;52.30;100567.84;5035484;28;20501;-78
2023/06/08 08:55:28;;;;;;;0.00;0.00;;;;;;;18.41;51.80;100579.91;5038697;28;20033;-78
2023/06/08 08:57:56;;;;;;;0.00;0.00;;;;;;;18.45;51.66;100584.50;5029469;28;20210;-77
2023/06/08 09:00:22;;;;;;;0.00;0.00;;;;;;;18.52;51.76;100581.31;5030956;28;20151;-76
2023/06/08 09:02:49;;;;;;;0.00;0.00;;;;;;;18.52;52.22;100581.31;5034703;28;20116;-78
2023/06/08 09:05:15;;;;;;;0.00;0.00;;;;;;;18.56;52.36;100579.53;5023853;28;20398;-78
2023/06/08 09:07:41;;;;;;;0.00;0.00;;;;;;;18.71;51.60;100578.31;5026506;28;20120;-77
2023/06/08 09:10:25;;;;;;;0.00;0.00;;;;;;;18.94;51.64;100576.34;5042369;28;20120;-77
2023/06/08 09:12:51;;;;;;;0.00;0.00;;;;;;;19.13;50.82;100578.06;5029723;28;20033;-78
2023/06/08 09:15:30;;;;;;;0.00;0.00;;;;;;;19.32;50.46;100575.84;5035899;28;20025;-76
2023/06/08 09:17:57;;;;;;;0.00;0.00;;;;;;;19.50;50.44;100575.88;5041519;28;20121;-79
2023/06/08 09:20:31;;;;;;;0.00;0.00;;;;;;;19.63;49.87;100569.38;5026098;28;20032;-78
2023/06/08 09:22:57;;;;;;;0.00;0.00;;;;;;;19.84;49.45;100555.75;5031819;28;20032;-77
2023/06/08 09:25:38;;;;;;;0.00;0.00;;;;;;;19.90;48.89;100575.81;5027185;28;20025;-78
2023/06/08 09:28:33;;;;;;;0.00;0.00;;;;;;;19.91;48.93;100580.22;5017704;28;20075;-77
2023/06/08 09:30:59;;;;;;;0.00;0.00;;;;;;;19.92;48.53;100576.31;5011305;28;20038;-78
2023/06/08 09:33:26;;;;;;;0.00;0.00;;;;;;;20.14;48.89;100577.31;5049930;28;20082;-78
2023/06/08 09:35:58;;;;;;;0.00;0.00;;;;;;;20.50;48.15;100578.88;5024775;28;20037;-77
2023/06/08 09:38:26;;;;;;;0.00;0.00;;;;;;;20.67;47.59;100581.66;5037988;28;20365;-77
2023/06/08 09:41:14;;;;;;;0.00;0.00;;;;;;;20.77;47.05;100568.56;5045289;28;20107;-77
2023/06/08 09:43:44;;;;;;;0.00;0.00;;;;;;;21.01;47.24;100588.25;5040230;28;20029;-77
2023/06/08 09:46:31;;;;;;;0.00;0.00;;;;;;;21.20;46.58;100573.13;5040066;28;20086;-77
2023/06/08 09:48:56;;;;;;;0.00;0.00;;;;;;;21.50;46.37;100570.34;5035005;28;20116;-78
2023/06/08 09:51:23;;;;;;;0.00;0.00;;;;;;;21.68;45.75;100573.88;5025444;28;20535;-77
2023/06/08 09:53:57;;;;;;;0.00;0.00;;;;;;;21.76;45.27;100562.66;5024884;28;20029;-77
2023/06/08 09:56:23;;;;;;;0.00;0.00;;;;;;;22.00;45.08;100566.75;5033071;28;20100;-77
2023/06/08 09:58:56;;;;;;;0.00;0.00;;;;;;;22.19;44.40;100557.09;5040214;28;20029;-78
2023/06/08 10:01:28;;;;;;;0.00;0.00;;;;;;;22.58;43.77;100572.44;5026119;28;20044;-77
2023/06/08 10:03:57;;;;;;;0.00;0.00;;;;;;;23.06;43.10;100572.91;5052282;28;20506;-75
2023/06/08 10:06:25;;;;;;;0.00;0.00;;;;;;;24.55;40.04;100563.06;5038896;28;20085;-77
2023/06/08 10:08:53;;;;;;;0.00;0.00;;;;;;;27.43;35.68;100573.22;5040910;28;20042;-77
2023/06/08 10:11:18;;;;;;;0.00;0.00;;;;;;;30.18;31.56;100566.25;5032346;28;20068;-77
2023/06/08 10:13:44;;;;;;;0.00;0.00;;;;;;;33.00;26.66;100570.16;5008273;28;20036;-77
2023/06/08 10:16:11;;;;;;;0.00;0.00;;;;;;;34.97;24.47;100566.19;5045982;28;20043;-78
2023/06/08 10:18:37;;;;;;;0.00;0.00;;;;;;;37.04;23.01;100562.34;5021501;28;20403;-77
2023/06/08 10:21:07;;;;;;;0.00;0.00;;;;;;;38.91;20.15;100549.59;5039324;28;20025;-77
2023/06/08 10:23:34;;;;;;;0.00;0.00;;;;;;;40.25;18.46;100560.72;5008723;28;20029;-76
2023/06/08 10:26:00;;;;;;;0.00;0.00;;;;;;;40.82;17.40;100553.94;5002851;28;20021;-77
2023/06/08 10:28:25;;;;;;;0.00;0.00;;;;;;;41.76;17.37;100547.03;5018277;28;20025;-77
2023/06/08 10:30:51;;;;;;;0.00;0.00;;;;;;;43.23;16.64;100541.91;5023020;28;20079;-77
2023/06/08 10:33:22;;;;;;;0.00;0.00;;;;;;;44.25;15.84;100538.84;5037307;28;20028;-78
2023/06/08 10:36:16;;;;;;;0.00;0.00;;;;;;;45.02;14.35;100535.22;5039498;28;20029;-77
2023/06/08 10:38:57;;;;;;;0.00;0.00;;;;;;;45.54;14.09;100535.34;5008932;28;20038;-78
2023/06/08 10:41:41;;;;;;;0.00;0.00;;;;;;;46.46;13.18;100526.16;5033148;28;20025;-75
2023/06/08 10:44:26;;;;;;;0.00;0.00;;;;;;;44.61;14.47;100519.47;5032571;28;20056;-74
2023/06/08 10:46:59;;;;;;;0.00;0.00;;;;;;;42.49;16.41;100497.16;5025161;28;20042;-74
2023/06/08 10:49:30;;;;;;;0.00;0.00;;;;;;;42.11;17.04;100507.19;5037068;28;20448;-75
2023/06/08 10:51:58;;;;;;;0.00;0.00;;;;;;;41.69;16.88;100505.06;5030066;28;20020;-76
2023/06/08 10:54:24;;;;;;;0.00;0.00;;;;;;;42.19;17.09;100497.00;5039004;28;20175;-75
2023/06/08 10:56:53;;;;;;;0.00;0.00;;;;;;;42.79;16.28;100508.00;5034502;28;20425;-75
2023/06/08 10:59:28;;;;;;;0.00;0.00;;;;;;;42.68;16.33;100502.81;5044345;28;20025;-75
2023/06/08 11:01:54;;;;;;;0.00;0.00;;;;;;;42.81;16.23;100506.25;5028635;28;20143;-75
2023/06/08 11:04:20;;;;;;;0.00;0.00;;;;;;;42.85;15.97;100489.59;5024850;28;20258;-74
2023/06/08 11:06:46;;;;;;;0.00;0.00;;;;;;;43.18;15.93;100488.75;5036848;28;20032;-75
2023/06/08 11:09:11;;;;;;;0.00;0.00;;;;;;;44.10;15.58;100494.84;5040773;28;20025;-75
2023/06/08 11:11:49;;;;;;;0.00;0.00;;;;;;;44.31;15.11;100489.16;5037686;28;20382;-75
2023/06/08 11:14:19;;;;;;;0.00;0.00;;;;;;;44.74;14.55;100492.41;5031073;28;20202;-74
2023/06/08 11:16:52;;;;;;;0.00;0.00;;;;;;;44.74;14.17;100486.63;5061446;28;20036;-75
2023/06/08 11:19:21;;;;;;;;;;;;;;;44.60;14.43;100489.06;5037457;28;20036;-76
2023/06/08 11:21:53;;;;;;;0.00;0.00;;;;;;;45.01;14.26;100475.94;5052397;28;19999;-76
2023/06/08 11:24:20;;;;;;;0.00;0.00;;;;;;;46.13;14.06;100469.69;5038771;28;20060;-75
2023/06/08 11:26:46;;;;;;;0.00;0.00;;;;;;;46.49;13.55;100473.09;5027249;28;20041;-76
2023/06/08 11:29:13;;;;;;;0.00;0.00;;;;;;;46.36;13.39;100469.88;5033666;28;20116;-75
2023/06/08 11:31:42;;;;;;;0.00;0.00;;;;;;;46.27;13.28;100467.97;5014550;28;20044;-76
2023/06/08 11:34:13;;;;;;;0.00;0.00;;;;;;;47.20;13.12;100460.78;5049983;28;20065;-76
2023/06/08 11:36:41;;;;;;;0.00;0.00;;;;;;;48.15;12.30;100470.88;5024295;28;20044;-74
2023/06/08 11:39:07;;;;;;;0.00;0.00;;;;;;;48.59;11.78;100459.69;5039270;28;20025;-77